This is the latest recevied weather packets stored in our database for station/object AI9F. If no packets are shown the sender has not sent any weather packets the latest 10 day(s).
| Time | Temp. | Humidity | Pressure | Rain* | Wind** | Luminosity | Snow |
|---|---|---|---|---|---|---|---|
| 1777811823 | 8.89° C | 81% | 1020.1 hPa | 0 mm | - | 76 W/m² | - |
| 1777811521 | 8.33° C | 84% | 1019.9 hPa | 0 mm | - | 74 W/m² | - |
| 1777811216 | 8.33° C | 84% | 1020 hPa | 0 mm | - | 74 W/m² | - |
| 1777810914 | 7.78° C | 86% | 1020 hPa | 0 mm | - | 70 W/m² | - |
| 1777810610 | 7.22° C | 89% | 1019.8 hPa | 0 mm | - | 68 W/m² | - |
| 1777810308 | 7.22° C | 93% | 1019.9 hPa | 0 mm | - | 63 W/m² | - |
| 1777809398 | 5.56° C | 98% | 1019.8 hPa | 0 mm | - | 47 W/m² | - |
| 1777809096 | 5° C | 98% | 1019.9 hPa | 0 mm | - | 42 W/m² | - |
| 1777808188 | 4.44° C | 98% | 1019.7 hPa | 0 mm | - | 20 W/m² | - |
| 1777807886 | 3.89° C | 98% | 1019.8 hPa | 0 mm | - | 18 W/m² | - |
| 1777807281 | 3.89° C | 97% | 1019.7 hPa | 0 mm | - | 13 W/m² | - |
| 1777806976 | 3.89° C | 97% | 1019.6 hPa | 0 mm | - | 11 W/m² | - |
| 1777806067 | 3.89° C | 97% | 1019.5 hPa | 0 mm | - | 4 W/m² | - |
| 1777805762 | 3.89° C | 97% | 1019.5 hPa | 0 mm | - | 2 W/m² | - |
| 1777804251 | 3.33° C | 97% | 1019.5 hPa | 0 mm | - | 0 W/m² | - |
| 1777803038 | 3.89° C | 97% | 1019.4 hPa | 0 mm | - | 0 W/m² | - |
| 1777802735 | 3.89° C | 97% | 1019.6 hPa | 0 mm | - | 0 W/m² | - |
| 1777802130 | 3.89° C | 97% | 1019.5 hPa | 0 mm | - | 0 W/m² | - |
| 1777801828 | 3.89° C | 97% | 1019.5 hPa | 0 mm | - | 0 W/m² | - |
| 1777801221 | 3.89° C | 96% | 1019.5 hPa | 0 mm | - | 0 W/m² | - |
| 1777800919 | 3.89° C | 96% | 1019.8 hPa | 0 mm | - | 0 W/m² | - |
| 1777800615 | 3.89° C | 96% | 1019.6 hPa | 0 mm | - | 0 W/m² | - |
| 1777800311 | 3.89° C | 96% | 1019.7 hPa | 0 mm | - | 0 W/m² | - |
| 1777800008 | 3.89° C | 96% | 1019.8 hPa | 0 mm | - | 0 W/m² | - |
| 1777799703 | 3.89° C | 96% | 1019.8 hPa | 0 mm | - | 0 W/m² | - |
* Rain latest hour (hover to see other rain measurements)
** Current wind speed in m/s (hover to see current wind gust speed)